Portada
METAR-TAF:

METAR-TAF

Aeroports :

Vinton Veterans Memorial Airpark

Vinton, Iowa, Estats Units d'Amèrica

latitud: 42-13-07N, longitud: 092-01-33W, altitud: 258 m

Observació

L'informe es va fer fa 22 minuts, a les 12:55 UTC
Vent 9 kt del Est/Sud-Est
Temperatura 22°C
Humitat 94%
Pressió 1011 hPa
Visibilitat: 8.0 km
Núvols disperses a una alçada de 200 ft
Núvols disperses a una alçada de 1500 ft
Cel ennuvolat a una alçada de 2400 ft
pluja

METAR: KVTI 201255Z AUTO 11009KT 5SM -RA SCT002 SCT015 BKN024 22/21 A2986 RMK AO2 T02160212

Hora: 08:17 (13:17 UTC)


TAF: manca

Observacions i pronòstics meteorològics de més de 4000 aeroports (METAR i TAF).

Les estacions disponibles són els punts grocs i vermells al mapa.

Posi el ratolí al punt desitjat per veure el nom de l'estació.

Feu clic per veure les observacions i els pronòstics meteorològics.

Per canviar el mapa: feu clic els botons verds amb una creu de color negre per apropar; al botó verd amb un guió per allunyar la imatge; o en les fletxes verdes per a mapes adjacents.


METAR-TAF: